Virginiborg — PBDL — position and weather

sailwx.info

Track history (hours):
 
Tides and Currents Weather Stations Pressure Air Temp Water Temp Dewpoint Dewpoint Depression Visibility Wind Speed Wind Dir Waves Ship Positions

Virginiborg

Last reported at 2017-Dec-15 05:35 UTC. Time now 2017-Dec-16 15:04 UTC.
Position N 39°25' W 009°49'.

Length 132 m; draft 7.7 m.

Type: Cargo ship. MMSI: 244632000.

Date/timePositionNaut miles runAvg speedWind from/ knotsBaromVisibWave heightAir tempDewpointWater temp
2017-Dec-15 05:35N 39°25' W 009°49'2 8.5
2017-Dec-15 05:19N 39°23' W 009°49'3 8.5
2017-Dec-15 05:00N 39°20' W 009°49'4 8.7
2017-Dec-15 04:30N 39°16' W 009°49'4 8.4
2017-Dec-15 04:00N 39°12' W 009°49'13 8.7
2017-Dec-15 02:30N 38°59' W 009°50'13 8.5
2017-Dec-15 01:00N 38°46' W 009°51'4 8.6
2017-Dec-15 00:30N 38°42' W 009°51'55 9.1
2017-Dec-14 18:31N 37°49' W 009°35'231 8.6
2017-Dec-13 15:42N 36°02' W 005°20'2 8.9
2017-Dec-13 15:30N 36°02' W 005°18'16910.2
2017-Dec-12 22:51N 36°29' W 001°51'410.4
2017-Dec-12 22:30N 36°30' W 001°46'510.5
2017-Dec-12 22:00N 36°31' W 001°40'710.5
2017-Dec-12 21:21N 36°32' W 001°32'  
2017-Dec-09 10:57N 36°41' E 013°36'8 8.7
2017-Dec-09 10:01N 36°38' E 013°45'2 8.6
2017-Dec-09 09:46N 36°38' E 013°48'3 8.8
2017-Dec-09 09:28N 36°37' E 013°51'5 9.4
2017-Dec-09 08:54N 36°35' E 013°57'18 9.1
2017-Dec-09 06:55N 36°28' E 014°18'4 9.1
2017-Dec-09 06:30N 36°27' E 014°22'5 9.0
2017-Dec-09 06:00N 36°25' E 014°28'4 8.9
2017-Dec-09 05:30N 36°23' E 014°33'  
Track history (hours):
 
Tides and Currents Weather Stations Pressure Air Temp Water Temp Dewpoint Dewpoint Depression Visibility Wind Speed Wind Dir Waves Ship Positions

Virginiborg

Last reported at 2017-Dec-15 05:35 UTC. Time now 2017-Dec-16 15:04 UTC.
Position N 39°25' W 009°49'.

Length 132 m; draft 7.7 m.

Type: Cargo ship. MMSI: 244632000.

Date/timePositionNaut miles runAvg speedWind from/ knotsBaromVisibWave heightAir tempDewpointWater temp
2017-Dec-15 05:35N 39°25' W 009°49'2 8.5
2017-Dec-15 05:19N 39°23' W 009°49'3 8.5
2017-Dec-15 05:00N 39°20' W 009°49'4 8.7
2017-Dec-15 04:30N 39°16' W 009°49'4 8.4
2017-Dec-15 04:00N 39°12' W 009°49'13 8.7
2017-Dec-15 02:30N 38°59' W 009°50'13 8.5
2017-Dec-15 01:00N 38°46' W 009°51'4 8.6
2017-Dec-15 00:30N 38°42' W 009°51'55 9.1
2017-Dec-14 18:31N 37°49' W 009°35'231 8.6
2017-Dec-13 15:42N 36°02' W 005°20'2 8.9
2017-Dec-13 15:30N 36°02' W 005°18'16910.2
2017-Dec-12 22:51N 36°29' W 001°51'410.4
2017-Dec-12 22:30N 36°30' W 001°46'510.5
2017-Dec-12 22:00N 36°31' W 001°40'710.5
2017-Dec-12 21:21N 36°32' W 001°32'  
2017-Dec-09 10:57N 36°41' E 013°36'8 8.7
2017-Dec-09 10:01N 36°38' E 013°45'2 8.6
2017-Dec-09 09:46N 36°38' E 013°48'3 8.8
2017-Dec-09 09:28N 36°37' E 013°51'5 9.4
2017-Dec-09 08:54N 36°35' E 013°57'18 9.1
2017-Dec-09 06:55N 36°28' E 014°18'4 9.1
2017-Dec-09 06:30N 36°27' E 014°22'5 9.0
2017-Dec-09 06:00N 36°25' E 014°28'4 8.9
2017-Dec-09 05:30N 36°23' E 014°33'  

Dump ship's entire track history